Bowling Green, MO (63334)

2:52 AM CST on November 26, 2014 (GMT -0600)
North Eastern Ralls County WB2UFO | Change Station
CLOSE
Current Station
Personal Weather Station
Location: New London, MO
Elevation: 700 ft
Nearby Weather Stations

Elev 700 ft 39.64 °N, 91.44 °W | Updated 1 minute ago

Clear
Clear
26.7 °F
Feels Like 27 °F
N
2.0
Wind Variable Wind from ESE
Gusts 5.0 mph

Today
High -- | Low -- °F
--% Chance of Precip.
Yesterday
High -- | Low -- °F
Precip. -- in
7:00 AM 4:43 PM
Waxing Crescent, 18% visible
Pressure 30.09 in
Visibility 10.0 miles
Clouds Clear
Windchill 27 °F
Dew Point 22 °F
Humidity 83%
Rainfall 0.00 in
Snow Depth Not available.
UV 0 out of 12
Pollen .10 out of 12
Air Quality Not available.
Flu Activity Not available.
METAR KPPQ 260835Z AUTO 12004KT 10SM CLR M02/M04 A3009 RMK AO2 T10221042 PWINO

More Conditions Fewer Conditions

Pressure 30.09 in
Visibility 10.0 miles
Clouds Clear
Windchill 27 °F
Dew Point 22 °F
Humidity 83%
Rainfall 0.00 in
Snow Depth Not available.
UV 0 out of 12
Pollen .10 out of 12
Air Quality Not available.
Flu Activity Not available.
METAR KPPQ 260835Z AUTO 12004KT 10SM CLR M02/M04 A3009 RMK AO2 T10221042 PWINO

More Conditions Fewer Conditions

10-Day Weather Forecast

Almanac

Astronomy

Nov. 26, 2014 Rise Set
Actual Time
Civil Twilight
Nautical Twilight
Astronomical Twilight
Moon
Length of Visible Light
Length of Day
Tomorrow will be .
, % of the Moon is Illuminated

Today's Extremes

State Highs State Lows

Community

WunderPhotos

Upload Photos

1,773,694 photos uploaded!

WunderBlogs® & News

Nearby

Air Quality

  Air Quality AQ Index Pollutant
Not available.

Snow Depth

Station Depth Elevation

Earthquake Activity

City Distance Mag. Time & Date
Minimum magnitude displayed is 2.5.

Coastal Water Temperatures

Place Temperature

Nearby Weather Stations